createdAt,value
2023-05-15T00:00:17.302Z,59042.03
2023-05-15T00:05:19.024Z,59042.03
2023-05-15T00:10:20.514Z,59042.03
2023-05-15T00:15:21.980Z,59042.03
2023-05-15T00:20:23.954Z,59042.03
2023-05-15T00:25:25.637Z,59042.03
2023-05-15T00:30:28.085Z,59042.03
2023-05-15T00:35:29.645Z,59042.03
2023-05-15T00:40:33.180Z,59042.03
2023-05-15T00:45:35.381Z,59042.03
2023-05-15T00:50:38.196Z,59042.03
2023-05-15T00:55:42.266Z,59042.03
2023-05-15T01:00:46.409Z,59042.03
2023-05-15T01:05:48.097Z,59042.03
2023-05-15T01:10:51.802Z,59042.03
2023-05-15T01:15:54.830Z,59042.03
2023-05-15T01:21:05.246Z,59042.03
2023-05-15T01:26:34.329Z,59042.03
2023-05-15T01:31:40.370Z,59042.03
2023-05-15T01:36:53.883Z,59042.03
2023-05-15T01:42:11.490Z,59042.03
2023-05-15T01:47:15.584Z,59042.03
2023-05-15T01:52:32.793Z,59042.03
2023-05-15T01:57:35.685Z,59042.03
2023-05-15T02:02:37.827Z,59042.03
2023-05-15T02:07:42.330Z,59042.03
2023-05-15T02:12:44.716Z,59042.03
2023-05-15T02:17:47.107Z,59042.03
2023-05-15T02:22:48.868Z,59042.03
2023-05-15T02:28:00.187Z,59042.03
2023-05-15T02:33:23.491Z,59042.03
2023-05-15T02:38:31.143Z,59042.03
2023-05-15T02:43:33.439Z,59042.03
2023-05-15T02:48:39.636Z,59042.03
2023-05-15T02:53:42.933Z,59042.03
2023-05-15T02:58:44.880Z,59042.03
2023-05-15T03:03:47.410Z,59042.03
2023-05-15T03:08:49.051Z,59042.03
2023-05-15T03:13:51.264Z,59042.03
2023-05-15T03:18:52.864Z,59042.03
2023-05-15T03:23:54.386Z,59042.03
2023-05-15T03:28:58.062Z,59042.03
2023-05-15T03:34:00.047Z,59042.03
2023-05-15T03:39:01.936Z,59042.03
2023-05-15T03:44:04.017Z,59042.03
2023-05-15T03:49:05.512Z,59042.03
2023-05-15T03:54:09.628Z,59042.03
2023-05-15T03:59:11.108Z,59042.03
2023-05-15T04:04:12.772Z,59042.03
2023-05-15T04:09:14.384Z,59042.03
2023-05-15T04:14:15.865Z,59042.03
2023-05-15T04:19:17.458Z,59042.03
2023-05-15T04:24:19.229Z,59042.03
2023-05-15T04:29:21.166Z,59042.03
2023-05-15T04:34:22.694Z,59042.03
2023-05-15T04:39:24.250Z,59042.03
2023-05-15T04:44:25.828Z,59042.03
2023-05-15T04:49:27.349Z,59042.03
2023-05-15T04:54:29.233Z,59042.03
2023-05-15T04:59:30.812Z,59042.03
2023-05-15T05:04:32.318Z,59042.03
2023-05-15T05:09:34.959Z,59042.03
2023-05-15T05:14:36.793Z,59042.03
2023-05-15T05:19:38.272Z,59042.03
2023-05-15T05:24:39.777Z,59042.03
2023-05-15T05:29:41.235Z,59042.03
2023-05-15T05:34:42.714Z,59042.03
2023-05-15T05:39:44.237Z,59042.03
2023-05-15T05:44:45.806Z,59042.03
2023-05-15T05:49:48.117Z,59042.03
2023-05-15T05:54:49.815Z,59042.03
2023-05-15T05:59:51.442Z,59042.03
2023-05-15T06:04:53.271Z,59042.03
2023-05-15T06:09:54.818Z,59042.03
2023-05-15T06:14:56.329Z,59042.03
2023-05-15T06:19:57.808Z,59042.03
2023-05-15T06:24:59.360Z,59042.03
2023-05-15T06:30:00.863Z,59042.03
2023-05-15T06:35:02.877Z,59042.03
2023-05-15T06:40:05.763Z,59042.03
2023-05-15T06:45:08.116Z,73473.09
2023-05-15T06:50:10.344Z,73349.50
2023-05-15T06:55:12.009Z,73277.78
2023-05-15T07:00:14.233Z,73215.22
2023-05-15T07:05:16.071Z,73212.16
2023-05-15T07:10:17.580Z,73184.69
2023-05-15T07:15:18.952Z,73183.16
2023-05-15T07:20:20.548Z,73163.31
2023-05-15T07:25:22.156Z,73111.44
2023-05-15T07:30:23.840Z,73053.47
2023-05-15T07:35:25.983Z,73070.25
2023-05-15T07:40:27.699Z,73042.78
2023-05-15T07:45:29.329Z,73103.81
2023-05-15T07:50:31.292Z,73044.31
2023-05-15T07:55:32.917Z,73056.53
2023-05-15T08:00:34.735Z,72998.53
2023-05-15T08:05:36.730Z,72995.47
2023-05-15T08:10:39.015Z,72977.16
2023-05-15T08:15:40.724Z,73010.75
2023-05-15T08:20:42.684Z,72980.22
2023-05-15T08:25:44.229Z,72934.44
2023-05-15T08:30:45.837Z,72928.34
2023-05-15T08:35:47.374Z,72943.59
2023-05-15T08:40:50.888Z,72926.81
2023-05-15T08:45:54.054Z,72960.38
2023-05-15T08:50:59.582Z,73004.63
2023-05-15T08:56:01.607Z,72969.53
2023-05-15T09:01:03.479Z,72969.53
2023-05-15T09:06:05.963Z,72987.84
2023-05-15T09:11:08.064Z,72960.38
2023-05-15T09:16:09.758Z,72923.75
2023-05-15T09:21:28.768Z,72906.97
2023-05-15T09:26:30.453Z,72922.25
2023-05-15T09:31:31.983Z,72870.34
2023-05-15T09:36:33.718Z,72882.56
2023-05-15T09:41:35.276Z,72874.94
2023-05-15T09:46:37.334Z,72887.16
2023-05-15T09:51:39.129Z,72882.56
2023-05-15T09:56:43.128Z,72827.63
2023-05-15T10:01:46.445Z,72815.44
2023-05-15T10:06:48.795Z,72844.41
2023-05-15T10:11:55.442Z,72827.63
2023-05-15T10:16:57.652Z,72829.16
2023-05-15T10:22:00.553Z,72757.44
2023-05-15T10:27:04.501Z,72723.88
2023-05-15T10:32:06.322Z,72688.78
2023-05-15T10:37:08.563Z,72746.75
2023-05-15T10:42:11.500Z,72722.34
2023-05-15T10:47:13.031Z,72757.44
2023-05-15T10:52:16.194Z,72729.97
2023-05-15T10:57:17.768Z,72771.19
2023-05-15T11:02:30.417Z,72853.56
2023-05-15T11:07:31.927Z,72876.47
2023-05-15T11:12:59.785Z,72903.94
2023-05-15T11:18:03.475Z,72845.94
2023-05-15T11:23:05.410Z,72774.22
2023-05-15T11:28:20.751Z,72794.06
2023-05-15T11:33:22.349Z,72797.13
2023-05-15T11:38:25.310Z,72745.25
2023-05-15T11:43:26.787Z,72725.41
2023-05-15T11:48:33.128Z,72733.03
2023-05-15T11:53:35.739Z,72729.97
2023-05-15T11:58:38.995Z,72772.69
2023-05-15T12:03:40.776Z,72757.44
2023-05-15T12:08:42.463Z,72797.13
2023-05-15T12:13:43.941Z,72742.19
2023-05-15T12:18:47.182Z,72736.09
2023-05-15T12:28:57.752Z,72746.75
2023-05-15T12:33:59.299Z,72809.31
2023-05-15T12:39:06.641Z,72824.59
2023-05-15T12:44:16.256Z,72791.00
2023-05-15T12:49:24.096Z,72745.25
2023-05-15T12:54:26.206Z,72723.88
2023-05-15T12:59:28.665Z,72672.00
2023-05-15T13:04:33.241Z,72675.03
2023-05-15T13:09:35.352Z,72679.63
2023-05-15T13:14:36.900Z,72684.19
2023-05-15T13:19:38.410Z,72673.53
2023-05-15T13:24:40.454Z,72664.38
2023-05-15T13:29:43.032Z,72687.25
2023-05-15T13:34:44.666Z,72673.53
2023-05-15T13:39:47.002Z,72717.78
2023-05-15T13:44:48.967Z,72714.72
2023-05-15T13:49:51.266Z,72733.03
2023-05-15T13:54:54.298Z,72766.59
2023-05-15T13:59:56.026Z,72801.69
2023-05-15T14:04:57.571Z,72772.69
2023-05-15T14:10:00.188Z,72733.03
2023-05-15T14:15:01.934Z,72748.28
2023-05-15T14:20:05.198Z,72795.59
2023-05-15T14:25:07.819Z,72751.34
2023-05-15T14:30:09.942Z,72743.72
2023-05-15T14:35:11.463Z,72786.44
2023-05-15T14:40:13.399Z,72794.06
2023-05-15T14:45:15.476Z,72804.75
2023-05-15T14:50:17.270Z,72755.91
2023-05-15T14:55:22.827Z,72757.44
2023-05-15T15:00:24.524Z,72792.53
2023-05-15T15:05:26.293Z,72748.28
2023-05-15T15:10:28.569Z,72739.13
2023-05-15T15:15:34.692Z,72780.34
2023-05-15T15:20:36.386Z,72821.53
2023-05-15T15:25:38.014Z,72867.31
2023-05-15T15:30:39.661Z,72842.91
2023-05-15T15:35:41.472Z,72810.84
2023-05-15T15:40:43.025Z,72820.00
2023-05-15T15:45:44.946Z,72862.72
2023-05-15T15:50:46.520Z,72870.34
2023-05-15T15:55:48.038Z,72879.50
2023-05-15T16:00:49.847Z,72868.84
2023-05-15T16:05:51.957Z,72894.78
2023-05-15T16:10:54.404Z,72906.97
2023-05-15T16:15:56.724Z,72900.88
2023-05-15T16:20:59.203Z,72942.06
2023-05-15T16:26:02.390Z,72955.81
2023-05-15T16:31:04.516Z,72955.81
2023-05-15T16:36:06.418Z,73010.75
2023-05-15T16:41:08.193Z,73022.94
2023-05-15T16:46:10.442Z,73022.94
2023-05-15T16:51:12.239Z,73059.56
2023-05-15T16:56:14.140Z,73135.88
2023-05-15T17:01:16.282Z,73190.78
2023-05-15T17:06:18.009Z,73248.78
2023-05-15T17:11:20.188Z,73289.97
2023-05-15T17:16:21.818Z,73323.53
2023-05-15T17:21:23.370Z,73360.16
2023-05-15T17:26:26.255Z,73407.47
2023-05-15T17:31:29.316Z,73442.56
2023-05-15T17:36:31.108Z,59042.03
2023-05-15T17:41:32.826Z,59042.03
2023-05-15T17:46:34.687Z,59042.03
2023-05-15T17:51:36.662Z,59042.03
2023-05-15T17:56:38.265Z,59042.03
2023-05-15T18:01:39.972Z,59042.03
2023-05-15T18:06:42.398Z,59042.03
2023-05-15T18:11:44.624Z,59042.03
2023-05-15T18:16:46.193Z,59042.03
2023-05-15T18:21:48.013Z,59042.03
2023-05-15T18:26:49.573Z,59042.03
2023-05-15T18:31:51.471Z,59042.03
2023-05-15T18:36:53.299Z,59042.03
2023-05-15T18:41:55.366Z,59042.03
2023-05-15T18:46:57.130Z,59042.03
2023-05-15T18:51:58.932Z,59042.03
2023-05-15T18:57:00.820Z,59042.03
2023-05-15T19:02:02.576Z,59042.03
2023-05-15T19:07:04.354Z,59042.03
2023-05-15T19:12:06.915Z,59042.03
2023-05-15T19:17:08.497Z,59042.03
2023-05-15T19:22:10.001Z,59042.03
2023-05-15T19:27:11.528Z,59042.03
2023-05-15T19:32:13.120Z,59042.03
2023-05-15T19:37:14.871Z,59042.03
2023-05-15T19:42:16.335Z,59042.03
2023-05-15T19:47:17.893Z,59042.03
2023-05-15T19:52:19.701Z,59042.03
2023-05-15T19:57:21.190Z,59042.03
2023-05-15T20:02:23.302Z,59042.03
2023-05-15T20:07:25.366Z,59042.03
2023-05-15T20:12:26.966Z,59042.03
2023-05-15T20:17:28.587Z,59042.03
2023-05-15T20:22:30.564Z,59042.03
2023-05-15T20:27:32.804Z,59042.03
2023-05-15T20:32:34.721Z,59042.03
2023-05-15T20:37:40.885Z,59042.03
2023-05-15T20:42:42.692Z,59042.03
2023-05-15T20:47:44.572Z,59042.03
2023-05-15T20:52:46.484Z,59042.03
2023-05-15T20:57:49.013Z,59042.03
2023-05-15T21:02:51.334Z,59042.03
2023-05-15T21:07:53.119Z,59042.03
2023-05-15T21:12:55.707Z,59042.03
2023-05-15T21:17:58.217Z,59042.03
2023-05-15T21:22:59.856Z,59042.03
2023-05-15T21:28:01.410Z,59042.03
2023-05-15T21:33:03.104Z,59042.03
2023-05-15T21:38:04.712Z,59042.03
2023-05-15T21:43:06.513Z,59042.03
2023-05-15T21:48:08.310Z,59042.03
2023-05-15T21:53:10.656Z,59042.03
2023-05-15T21:58:12.329Z,59042.03
2023-05-15T22:03:14.260Z,59042.03
2023-05-15T22:08:16.620Z,59042.03
2023-05-15T22:13:18.117Z,59042.03
2023-05-15T22:18:19.971Z,59042.03
2023-05-15T22:23:21.540Z,59042.03
2023-05-15T22:28:23.068Z,59042.03
2023-05-15T22:33:24.937Z,59042.03
2023-05-15T22:38:26.442Z,59042.03
2023-05-15T22:43:27.947Z,59042.03
2023-05-15T22:48:29.651Z,59042.03
2023-05-15T22:53:32.024Z,59042.03
2023-05-15T22:58:33.691Z,59042.03
2023-05-15T23:03:35.377Z,59042.03
2023-05-15T23:08:36.910Z,59042.03
2023-05-15T23:13:38.403Z,59042.03
2023-05-15T23:18:40.595Z,59042.03
2023-05-15T23:23:42.204Z,59042.03
2023-05-15T23:28:43.790Z,59042.03
2023-05-15T23:33:45.743Z,59042.03
2023-05-15T23:38:47.265Z,59042.03
2023-05-15T23:43:50.481Z,59042.03
2023-05-15T23:48:52.050Z,59042.03
2023-05-15T23:53:53.708Z,59042.03
2023-05-15T23:58:55.548Z,59042.03
